aviador You're here:

YSCB Decoded Metar

CANBERRA in AUSTRALIA
Report Time2017-08-24 06:30:00
UTC Time2017-08-24 06:59:36
Flight Rules vfr VFR
Wind190° at 09 kt
W.Decomp.*RWY 17: 8.9 kt HW 1.3 kt RCW
RWY 12: 4.8 kt HW 7.6 kt RCW
W.Rank190° ranks 23
Current wind is above 190° avg. (6.8)
Visibility9999 m
Phenomena:N/A
Clouds:Broken 055 Hf
Expected CloudBase > 4,400 ft AGL from Temp-Dew spread
Ceiling5,500 ft
Temp11°C (ISA -0)
Dew Point00°C (47% RH)
AAT5.8°C
QNH1018 hPa
Density Alt1,785 ft
Elevation1,893 ft
Report Wrong Elevation
Raw Report
YSCB 240630Z 19009KT 9999 BKN055 11/M00 Q1018 NOSIG=

Extra information for YSCB:More info

Metar Taf Metar & Taf Last 4 Metars F.Rules Stats Wind Profile Meteogram Temp Stats Airport Information Weather charts Add Link Nearby VenuesMetar ALERT Operation Metar Decoded Social comments